createdAt,value
2017-10-09T00:01:53.356Z,6.80
2017-10-09T00:04:21.703Z,6.33
2017-10-09T00:06:49.239Z,6.40
2017-10-09T00:09:16.771Z,6.23
2017-10-09T00:11:44.326Z,6.00
2017-10-09T00:14:11.859Z,6.33
2017-10-09T00:16:39.391Z,5.90
2017-10-09T00:19:06.956Z,8.40
2017-10-09T00:21:34.491Z,5.70
2017-10-09T00:24:02.019Z,5.77
2017-10-09T00:26:29.598Z,6.23
2017-10-09T00:28:57.135Z,6.07
2017-10-09T00:31:25.440Z,5.47
2017-10-09T00:33:53.299Z,5.60
2017-10-09T00:36:20.830Z,5.80
2017-10-09T00:38:49.156Z,5.78
2017-10-09T00:41:16.715Z,6.53
2017-10-09T00:43:44.246Z,5.90
2017-10-09T00:46:11.778Z,5.47
2017-10-09T00:48:39.399Z,5.07
2017-10-09T00:51:06.939Z,5.57
2017-10-09T00:53:34.495Z,6.07
2017-10-09T00:56:02.079Z,5.53
2017-10-09T00:58:29.614Z,5.20
2017-10-09T01:00:57.150Z,5.50
2017-10-09T01:03:25.470Z,5.07
2017-10-09T01:05:53.011Z,5.20
2017-10-09T01:08:20.546Z,5.20
2017-10-09T01:10:48.900Z,5.83
2017-10-09T01:13:16.432Z,5.37
2017-10-09T01:15:43.968Z,5.73
2017-10-09T01:18:11.540Z,5.35
2017-10-09T01:20:39.847Z,5.40
2017-10-09T01:23:07.401Z,11.18
2017-10-09T01:25:34.973Z,5.50
2017-10-09T01:28:02.507Z,5.28
2017-10-09T01:30:30.047Z,5.13
2017-10-09T01:32:57.641Z,5.67
2017-10-09T01:35:25.551Z,4.60
2017-10-09T01:37:53.105Z,5.83
2017-10-09T01:40:21.431Z,5.20
2017-10-09T01:42:49.724Z,5.67
2017-10-09T01:45:17.257Z,5.67
2017-10-09T01:47:44.812Z,5.07
2017-10-09T01:50:12.347Z,5.60
2017-10-09T01:52:39.881Z,5.17
2017-10-09T01:55:07.488Z,5.10
2017-10-09T01:57:35.027Z,5.93
2017-10-09T02:00:02.564Z,4.70
2017-10-09T02:02:30.128Z,5.10
2017-10-09T02:04:57.660Z,5.63
2017-10-09T02:07:25.200Z,5.70
2017-10-09T02:09:52.764Z,5.27
2017-10-09T02:12:20.303Z,15.00
2017-10-09T02:14:47.835Z,5.80
2017-10-09T02:17:16.446Z,5.20
2017-10-09T02:19:43.983Z,5.43
2017-10-09T02:22:11.515Z,5.93
2017-10-09T02:24:39.087Z,6.30
2017-10-09T02:27:06.730Z,5.40
2017-10-09T02:29:34.270Z,5.30
2017-10-09T02:32:01.828Z,5.07
2017-10-09T02:34:29.359Z,5.63
2017-10-09T02:36:57.207Z,6.37
2017-10-09T02:39:24.798Z,5.07
2017-10-09T02:41:52.331Z,5.70
2017-10-09T02:44:19.855Z,5.37
2017-10-09T02:46:47.415Z,5.37
2017-10-09T02:49:16.405Z,5.87
2017-10-09T02:51:43.965Z,6.43
2017-10-09T02:54:11.519Z,6.25
2017-10-09T02:56:39.076Z,6.40
2017-10-09T02:59:06.649Z,5.40
2017-10-09T03:01:34.239Z,6.63
2017-10-09T03:04:02.539Z,5.97
2017-10-09T03:06:30.075Z,6.60
2017-10-09T03:08:58.411Z,7.17
2017-10-09T03:11:26.804Z,6.70
2017-10-09T03:13:54.339Z,7.63
2017-10-09T03:16:21.903Z,7.00
2017-10-09T03:18:49.435Z,6.60
2017-10-09T03:21:17.852Z,7.75
2017-10-09T03:27:08.693Z,9.03
2017-10-09T03:29:44.811Z,7.53
2017-10-09T03:32:12.343Z,8.23
2017-10-09T03:34:40.637Z,8.10
2017-10-09T03:37:08.231Z,8.13
2017-10-09T03:39:35.794Z,7.67
2017-10-09T03:42:03.327Z,8.50
2017-10-09T03:44:30.930Z,8.75
2017-10-09T03:46:58.456Z,9.32
2017-10-09T03:49:25.991Z,9.98
2017-10-09T03:51:53.546Z,9.67
2017-10-09T03:54:21.080Z,8.20
2017-10-09T03:56:48.629Z,9.30
2017-10-09T03:59:16.419Z,11.17
2017-10-09T04:01:43.983Z,9.53
2017-10-09T04:04:12.283Z,8.67
2017-10-09T04:06:39.871Z,9.03
2017-10-09T04:09:07.402Z,8.70
2017-10-09T04:11:34.939Z,10.70
2017-10-09T04:14:02.489Z,8.80
2017-10-09T04:16:30.799Z,8.88
2017-10-09T04:18:58.332Z,8.53
2017-10-09T04:21:26.656Z,10.13
2017-10-09T04:23:54.187Z,9.53
2017-10-09T04:26:21.727Z,9.65
2017-10-09T04:28:50.081Z,9.30
2017-10-09T04:31:17.616Z,9.00
2017-10-09T04:33:45.151Z,9.47
2017-10-09T04:36:12.728Z,9.10
2017-10-09T04:38:40.667Z,8.30
2017-10-09T04:41:08.210Z,10.67
2017-10-09T04:43:35.772Z,8.83
2017-10-09T04:46:03.310Z,10.60
2017-10-09T04:48:30.840Z,10.23
2017-10-09T04:50:58.434Z,9.93
2017-10-09T04:53:25.964Z,9.50
2017-10-09T04:55:53.499Z,10.30
2017-10-09T04:58:21.108Z,10.10
2017-10-09T05:00:48.633Z,10.00
2017-10-09T05:03:17.204Z,9.73
2017-10-09T05:05:44.758Z,9.83
2017-10-09T05:08:12.299Z,12.73
2017-10-09T05:10:39.827Z,10.37
2017-10-09T05:13:07.417Z,11.97
2017-10-09T05:15:35.724Z,11.30
2017-10-09T05:18:03.261Z,12.20
2017-10-09T05:20:31.587Z,10.70
2017-10-09T05:22:59.115Z,15.30
2017-10-09T05:25:26.651Z,11.87
2017-10-09T05:27:54.215Z,12.27
2017-10-09T05:30:22.517Z,11.73
2017-10-09T05:32:50.055Z,16.20
2017-10-09T05:35:18.411Z,13.60
2017-10-09T05:37:45.951Z,15.90
2017-10-09T05:40:15.698Z,14.93
2017-10-09T05:42:43.265Z,15.93
2017-10-09T05:45:11.572Z,15.97
2017-10-09T05:47:39.871Z,17.97
2017-10-09T05:50:07.435Z,21.27
2017-10-09T05:52:34.976Z,18.17
2017-10-09T05:55:02.519Z,22.23
2017-10-09T05:57:30.415Z,19.73
2017-10-09T05:59:57.954Z,17.27
2017-10-09T06:02:25.483Z,17.80
2017-10-09T06:04:53.039Z,15.40
2017-10-09T06:07:20.567Z,16.53
2017-10-09T06:09:48.099Z,16.30
2017-10-09T06:12:16.438Z,20.70
2017-10-09T06:14:44.739Z,18.00
2017-10-09T06:17:12.270Z,16.40
2017-10-09T06:19:40.894Z,16.87
2017-10-09T06:22:08.418Z,18.40
2017-10-09T06:24:36.834Z,19.47
2017-10-09T06:27:04.408Z,15.47
2017-10-09T06:29:31.951Z,16.50
2017-10-09T06:32:00.251Z,15.43
2017-10-09T06:34:27.807Z,13.97
2017-10-09T06:36:55.337Z,15.27
2017-10-09T06:39:22.871Z,12.80
2017-10-09T06:41:50.711Z,16.62
2017-10-09T06:44:18.243Z,16.80
2017-10-09T06:46:45.770Z,13.07
2017-10-09T06:49:15.450Z,12.32
2017-10-09T06:51:42.990Z,14.83
2017-10-09T06:54:10.531Z,12.93
2017-10-09T06:56:38.091Z,12.40
2017-10-09T06:59:05.624Z,11.53
2017-10-09T07:01:33.159Z,13.07
2017-10-09T07:04:00.738Z,14.40
2017-10-09T07:06:29.039Z,15.47
2017-10-09T07:08:56.570Z,14.30
2017-10-09T07:11:24.894Z,16.83
2017-10-09T07:13:52.435Z,13.10
2017-10-09T07:16:19.980Z,12.90
2017-10-09T07:18:47.548Z,13.70
2017-10-09T07:21:16.407Z,13.00
2017-10-09T07:23:43.939Z,14.40
2017-10-09T07:26:11.544Z,12.00
2017-10-09T07:28:39.083Z,11.70
2017-10-09T07:31:06.611Z,10.80
2017-10-09T07:33:34.166Z,11.07
2017-10-09T07:36:01.701Z,13.40
2017-10-09T07:38:29.243Z,13.47
2017-10-09T07:40:56.816Z,10.60
2017-10-09T07:43:24.744Z,17.30
2017-10-09T07:45:52.270Z,16.60
2017-10-09T07:48:19.856Z,11.98
2017-10-09T07:50:47.398Z,9.70
2017-10-09T07:53:16.499Z,10.00
2017-10-09T07:55:44.063Z,11.23
2017-10-09T07:58:11.591Z,9.80
2017-10-09T08:00:39.127Z,11.47
2017-10-09T08:03:06.687Z,8.80
2017-10-09T08:05:34.219Z,8.77
2017-10-09T08:08:02.524Z,10.27
2017-10-09T08:10:30.102Z,7.27
2017-10-09T08:12:57.634Z,8.27
2017-10-09T08:15:25.180Z,7.90
2017-10-09T08:17:52.743Z,9.20
2017-10-09T08:20:21.040Z,9.73
2017-10-09T08:22:48.573Z,7.10
2017-10-09T08:25:16.450Z,7.10
2017-10-09T08:27:43.975Z,8.47
2017-10-09T08:30:11.508Z,9.63
2017-10-09T08:32:39.096Z,6.77
2017-10-09T08:35:06.634Z,7.63
2017-10-09T08:37:34.163Z,7.20
2017-10-09T08:40:01.722Z,7.23
2017-10-09T08:42:29.242Z,7.23
2017-10-09T08:44:57.127Z,5.57
2017-10-09T08:47:25.471Z,4.60
2017-10-09T08:49:52.997Z,4.73
2017-10-09T08:52:20.524Z,4.43
2017-10-09T08:54:49.138Z,4.70
2017-10-09T08:57:16.662Z,5.90
2017-10-09T08:59:44.963Z,4.60
2017-10-09T09:02:12.537Z,8.45
2017-10-09T09:04:40.071Z,4.90
2017-10-09T09:07:07.656Z,4.70
2017-10-09T09:09:35.219Z,4.60
2017-10-09T09:12:02.747Z,4.63
2017-10-09T09:14:30.278Z,5.50
2017-10-09T09:16:57.874Z,5.30
2017-10-09T09:19:26.177Z,4.90
2017-10-09T09:21:54.479Z,8.03
2017-10-09T09:24:22.038Z,6.43
2017-10-09T09:26:49.567Z,7.97
2017-10-09T09:29:17.095Z,6.63
2017-10-09T09:31:44.651Z,6.60
2017-10-09T09:34:12.191Z,7.23
2017-10-09T09:36:39.713Z,6.97
2017-10-09T09:39:07.310Z,6.63
2017-10-09T09:41:34.835Z,7.10
2017-10-09T09:44:02.360Z,7.10
2017-10-09T09:46:30.823Z,6.30
2017-10-09T09:48:58.360Z,6.70
2017-10-09T09:51:25.898Z,12.50
2017-10-09T09:53:53.448Z,6.30
2017-10-09T09:56:20.980Z,6.47
2017-10-09T09:58:48.510Z,7.50
2017-10-09T10:01:16.427Z,8.33
2017-10-09T10:03:43.960Z,7.20
2017-10-09T10:06:11.488Z,8.15
2017-10-09T10:08:39.047Z,7.20
2017-10-09T10:11:06.567Z,6.97
2017-10-09T10:13:34.109Z,12.87
2017-10-09T10:16:02.437Z,7.67
2017-10-09T10:18:29.968Z,6.90
2017-10-09T10:20:57.491Z,8.45
2017-10-09T10:23:25.864Z,7.60
2017-10-09T10:25:53.404Z,7.80
2017-10-09T10:28:20.940Z,6.90
2017-10-09T10:30:48.522Z,7.05
2017-10-09T10:33:16.491Z,7.28
2017-10-09T10:35:44.016Z,7.77
2017-10-09T10:38:11.590Z,7.13
2017-10-09T10:40:39.883Z,7.70
2017-10-09T10:43:07.412Z,7.72
2017-10-09T10:45:35.003Z,12.90
2017-10-09T10:48:02.936Z,8.30
2017-10-09T10:50:30.477Z,10.50
2017-10-09T10:52:58.794Z,8.10
2017-10-09T10:55:26.319Z,8.07
2017-10-09T10:57:54.616Z,8.80
2017-10-09T11:00:22.175Z,8.60
2017-10-09T11:02:49.707Z,11.10
2017-10-09T11:05:17.243Z,7.93
2017-10-09T11:07:44.818Z,7.63
2017-10-09T11:10:14.035Z,8.70
2017-10-09T11:12:41.567Z,9.50
2017-10-09T11:15:09.127Z,9.30
2017-10-09T11:17:36.659Z,8.87
2017-10-09T11:20:04.194Z,9.03
2017-10-09T11:22:31.755Z,8.73
2017-10-09T11:24:59.289Z,9.13
2017-10-09T11:27:27.593Z,8.45
2017-10-09T11:29:55.183Z,8.47
2017-10-09T11:32:22.720Z,7.95
2017-10-09T11:34:50.264Z,8.90
2017-10-09T11:37:17.831Z,7.13
2017-10-09T11:39:45.368Z,8.02
2017-10-09T11:42:24.447Z,8.40
2017-10-09T11:48:54.804Z,8.53
2017-10-09T11:51:22.336Z,8.20
2017-10-09T11:53:49.874Z,8.30
2017-10-09T11:56:17.433Z,7.90
2017-10-09T11:58:44.959Z,8.40
2017-10-09T12:01:12.478Z,9.43
2017-10-09T12:03:40.031Z,7.97
2017-10-09T12:06:07.560Z,8.30
2017-10-09T12:08:35.852Z,8.87
2017-10-09T12:11:03.436Z,8.80
2017-10-09T12:13:30.966Z,7.27
2017-10-09T12:15:58.506Z,10.75
2017-10-09T12:18:26.074Z,9.57
2017-10-09T12:20:54.379Z,9.10
2017-10-09T12:23:21.911Z,10.00
2017-10-09T12:25:50.239Z,9.68
2017-10-09T12:28:17.768Z,9.00
2017-10-09T12:30:45.307Z,9.27
2017-10-09T12:33:24.370Z,8.30
2017-10-09T12:45:01.932Z,10.43
2017-10-09T12:47:29.462Z,9.87
2017-10-09T12:49:57.435Z,11.20
2017-10-09T12:52:25.016Z,10.00
2017-10-09T12:54:52.563Z,12.33
2017-10-09T12:57:20.096Z,9.82
2017-10-09T12:59:49.269Z,14.23
2017-10-09T13:02:16.807Z,9.73
2017-10-09T13:04:44.349Z,10.03
2017-10-09T13:07:11.972Z,12.83
2017-10-09T13:09:39.544Z,12.57
2017-10-09T13:12:07.083Z,11.63
2017-10-09T13:14:34.704Z,16.00
2017-10-09T13:17:02.428Z,14.60
2017-10-09T13:19:29.990Z,20.67
2017-10-09T13:21:57.574Z,11.90
2017-10-09T13:24:25.132Z,10.60
2017-10-09T13:26:52.681Z,10.67
2017-10-09T13:29:20.287Z,9.57
2017-10-09T13:31:48.011Z,11.17
2017-10-09T13:34:17.218Z,11.10
2017-10-09T13:36:45.623Z,12.73
2017-10-09T13:39:24.968Z,16.12
2017-10-09T13:44:50.381Z,14.97
2017-10-09T13:47:28.128Z,14.53
2017-10-09T13:49:55.737Z,16.03
2017-10-09T13:52:23.310Z,16.73
2017-10-09T13:54:50.862Z,17.03
2017-10-09T13:57:18.491Z,14.57
2017-10-09T13:59:46.059Z,16.63
2017-10-09T14:02:25.096Z,16.53
2017-10-09T14:10:42.699Z,17.23
2017-10-09T14:13:14.800Z,13.90
2017-10-09T14:15:43.191Z,16.20
2017-10-09T14:18:10.741Z,14.93
2017-10-09T14:20:38.323Z,17.80
2017-10-09T14:23:05.919Z,14.60
2017-10-09T14:25:33.594Z,16.77
2017-10-09T14:28:01.992Z,15.90
2017-10-09T14:30:30.343Z,17.67
2017-10-09T14:40:21.281Z,10.73
2017-10-09T14:42:48.828Z,11.30
2017-10-09T14:45:17.277Z,12.27
2017-10-09T14:47:45.637Z,12.40
2017-10-09T14:50:15.394Z,11.85
2017-10-09T14:52:44.093Z,10.27
2017-10-09T14:55:12.114Z,10.40
2017-10-09T14:57:39.768Z,10.67
2017-10-09T15:00:12.130Z,17.15
2017-10-09T15:02:39.667Z,14.52
2017-10-09T15:05:07.195Z,13.17
2017-10-09T15:07:34.760Z,12.57
2017-10-09T15:10:02.300Z,13.40
2017-10-09T15:12:30.651Z,14.33
2017-10-09T15:14:58.224Z,11.60
2017-10-09T15:17:25.755Z,13.37
2017-10-09T15:19:53.295Z,14.50
2017-10-09T15:22:21.115Z,14.40
2017-10-09T15:24:49.119Z,16.53
2017-10-09T15:27:16.663Z,17.23
2017-10-09T15:29:44.236Z,19.57
2017-10-09T15:32:11.816Z,22.90
2017-10-09T15:34:39.358Z,20.27
2017-10-09T15:37:06.948Z,20.23
2017-10-09T15:39:34.487Z,22.57
2017-10-09T15:42:02.304Z,19.67
2017-10-09T15:44:35.248Z,26.15
2017-10-09T15:47:03.522Z,48.40
2017-10-09T15:49:31.966Z,26.00
2017-10-09T15:51:59.958Z,17.17
2017-10-09T15:54:29.327Z,18.23
2017-10-09T15:56:56.886Z,11.77
2017-10-09T15:59:25.216Z,15.38
2017-10-09T16:01:52.751Z,11.50
2017-10-09T16:04:20.601Z,11.63
2017-10-09T16:06:48.252Z,13.17
2017-10-09T16:09:16.520Z,17.95
2017-10-09T16:11:44.902Z,15.87
2017-10-09T16:14:12.490Z,15.05
2017-10-09T16:16:40.268Z,14.37
2017-10-09T16:19:07.903Z,11.50
2017-10-09T16:21:35.467Z,12.88
2017-10-09T16:24:03.004Z,13.43
2017-10-09T16:26:31.311Z,19.70
2017-10-09T16:28:58.943Z,16.40
2017-10-09T16:31:27.275Z,13.20
2017-10-09T16:33:54.807Z,13.00
2017-10-09T16:36:22.381Z,11.53
2017-10-09T16:38:49.943Z,13.10
2017-10-09T16:41:17.475Z,12.63
2017-10-09T16:43:45.795Z,11.90
2017-10-09T16:46:15.379Z,14.63
2017-10-09T16:48:42.910Z,13.70
2017-10-09T16:51:10.493Z,17.90
2017-10-09T16:53:38.027Z,15.80
2017-10-09T16:56:06.827Z,17.23
2017-10-09T16:58:35.176Z,24.33
2017-10-09T17:01:02.721Z,28.48
2017-10-09T17:03:30.251Z,26.87
2017-10-09T17:05:57.812Z,21.80
2017-10-09T17:08:25.393Z,18.25
2017-10-09T17:10:53.240Z,19.00
2017-10-09T17:13:20.820Z,17.83
2017-10-09T17:15:48.394Z,14.43
2017-10-09T17:18:16.556Z,24.02
2017-10-09T17:20:44.211Z,20.83
2017-10-09T17:23:11.786Z,30.03
2017-10-09T17:25:39.515Z,27.03
2017-10-09T17:28:07.659Z,14.63
2017-10-09T17:30:35.220Z,15.17
2017-10-09T17:33:02.756Z,19.23
2017-10-09T17:35:31.044Z,15.67
2017-10-09T17:38:00.991Z,17.63
2017-10-09T17:40:28.542Z,18.55
2017-10-09T17:42:56.114Z,16.80
2017-10-09T17:45:23.655Z,16.93
2017-10-09T17:47:51.963Z,16.23
2017-10-09T17:50:19.535Z,18.60
2017-10-09T17:52:49.384Z,19.67
2017-10-09T17:55:16.928Z,23.83
2017-10-09T17:57:44.551Z,22.13
2017-10-09T18:00:12.160Z,17.10
2017-10-09T18:02:39.691Z,18.50
2017-10-09T18:05:07.259Z,19.30
2017-10-09T18:07:34.791Z,23.03
2017-10-09T18:10:02.329Z,18.50
2017-10-09T18:12:30.682Z,17.80
2017-10-09T18:14:58.220Z,19.47
2017-10-09T18:17:26.084Z,19.10
2017-10-09T18:19:53.687Z,20.03
2017-10-09T18:22:22.001Z,23.77
2017-10-09T18:24:49.560Z,24.17
2017-10-09T18:27:17.129Z,21.83
2017-10-09T18:29:44.709Z,20.30
2017-10-09T18:32:12.312Z,21.60
2017-10-09T18:34:41.011Z,18.60
2017-10-09T18:37:08.572Z,18.30
2017-10-09T18:39:36.359Z,19.70
2017-10-09T18:42:03.968Z,20.50
2017-10-09T18:44:32.319Z,18.37
2017-10-09T18:46:59.860Z,21.40
2017-10-09T18:49:27.508Z,18.30
2017-10-09T18:51:55.048Z,27.47
2017-10-09T18:54:22.587Z,16.53
2017-10-09T18:56:50.171Z,15.20
2017-10-09T18:59:18.184Z,18.13
2017-10-09T19:01:45.907Z,16.40
2017-10-09T19:04:24.703Z,19.87
2017-10-09T19:09:34.370Z,15.80
2017-10-09T19:12:01.906Z,14.53
2017-10-09T19:14:29.434Z,19.52
2017-10-09T19:16:57.004Z,17.87
2017-10-09T19:19:24.555Z,22.37
2017-10-09T19:21:52.092Z,18.97
2017-10-09T19:24:19.816Z,17.98
2017-10-09T19:26:47.489Z,24.45
2017-10-09T19:29:16.426Z,22.87
2017-10-09T19:31:43.986Z,21.10
2017-10-09T19:34:11.527Z,20.42
2017-10-09T19:36:39.096Z,20.97
2017-10-09T19:39:06.707Z,24.33
2017-10-09T19:41:34.315Z,22.97
2017-10-09T19:44:01.996Z,23.77
2017-10-09T19:46:29.594Z,22.80
2017-10-09T19:48:57.213Z,30.23
2017-10-09T19:51:24.801Z,19.05
2017-10-09T19:53:52.365Z,18.20
2017-10-09T19:56:19.910Z,17.98
2017-10-09T19:58:47.448Z,19.70
2017-10-09T20:01:16.427Z,18.80
2017-10-09T20:03:43.964Z,23.60
2017-10-09T20:06:11.705Z,19.65
2017-10-09T20:08:39.356Z,20.03
2017-10-09T20:11:06.890Z,19.60
2017-10-09T20:13:34.519Z,25.75
2017-10-09T20:16:02.124Z,23.57
2017-10-09T20:18:29.721Z,17.10
2017-10-09T20:20:57.322Z,25.10
2017-10-09T20:23:24.884Z,22.30
2017-10-09T20:25:52.527Z,23.70
2017-10-09T20:28:20.824Z,28.45
2017-10-09T20:30:48.556Z,19.33
2017-10-09T20:33:16.592Z,15.45
2017-10-09T20:35:44.265Z,12.93
2017-10-09T20:38:11.841Z,14.67
2017-10-09T20:40:41.081Z,15.07
2017-10-09T20:43:10.275Z,16.30
2017-10-09T20:45:38.757Z,19.17
2017-10-09T20:48:06.328Z,19.52
2017-10-09T20:50:33.961Z,21.43
2017-10-09T20:53:01.567Z,17.90
2017-10-09T20:55:29.327Z,18.03
2017-10-09T20:57:56.875Z,17.80
2017-10-09T21:00:24.433Z,16.52
2017-10-09T21:02:52.295Z,18.07
2017-10-09T21:05:19.831Z,19.05
2017-10-09T21:07:47.391Z,18.33
2017-10-09T21:10:16.874Z,17.62
2017-10-09T21:12:45.225Z,21.58
2017-10-09T21:15:13.876Z,22.43
2017-10-09T21:17:41.457Z,17.47
2017-10-09T21:20:09.075Z,14.20
2017-10-09T21:22:37.457Z,18.70
2017-10-09T21:25:05.015Z,14.37
2017-10-09T21:27:32.559Z,18.77
2017-10-09T21:30:00.252Z,22.20
2017-10-09T21:32:27.842Z,21.27
2017-10-09T21:34:55.376Z,15.40
2017-10-09T21:37:22.984Z,11.93
2017-10-09T21:39:50.515Z,15.35
2017-10-09T21:42:18.047Z,12.60
2017-10-09T21:44:46.516Z,11.30
2017-10-09T21:47:15.506Z,11.98
2017-10-09T21:49:43.829Z,10.83
2017-10-09T21:52:12.263Z,10.10
2017-10-09T21:54:40.591Z,11.27
2017-10-09T21:57:08.148Z,11.27
2017-10-09T21:59:35.727Z,12.20
2017-10-09T22:02:03.260Z,10.87
2017-10-09T22:04:31.535Z,9.80
2017-10-09T22:07:00.129Z,8.50
2017-10-09T22:09:27.731Z,12.93
2017-10-09T22:11:56.107Z,10.17
2017-10-09T22:14:23.733Z,10.98
2017-10-09T22:16:51.255Z,9.47
2017-10-09T22:19:19.545Z,9.93
2017-10-09T22:21:47.147Z,10.33
2017-10-09T22:24:16.443Z,9.40
2017-10-09T22:26:43.967Z,9.93
2017-10-09T22:29:11.520Z,10.00
2017-10-09T22:31:39.035Z,8.93
2017-10-09T22:34:06.562Z,8.20
2017-10-09T22:36:34.117Z,9.10
2017-10-09T22:39:01.636Z,8.43
2017-10-09T22:41:29.167Z,12.95
2017-10-09T22:43:56.742Z,8.67
2017-10-09T22:46:24.267Z,8.73
2017-10-09T22:48:51.796Z,7.57
2017-10-09T22:51:19.363Z,9.60
2017-10-09T22:53:46.899Z,7.73
2017-10-09T22:56:15.540Z,7.07
2017-10-09T22:58:43.094Z,8.43
2017-10-09T23:01:10.632Z,7.07
2017-10-09T23:03:38.155Z,7.00
2017-10-09T23:06:06.030Z,7.73
2017-10-09T23:08:34.331Z,7.62
2017-10-09T23:11:01.864Z,10.67
2017-10-09T23:13:30.183Z,13.77
2017-10-09T23:15:57.714Z,7.30
2017-10-09T23:18:26.012Z,7.70
2017-10-09T23:20:53.558Z,6.80
2017-10-09T23:23:21.092Z,6.33
2017-10-09T23:25:48.620Z,7.33
2017-10-09T23:28:16.523Z,7.00
2017-10-09T23:30:44.819Z,6.40
2017-10-09T23:33:12.352Z,8.00
2017-10-09T23:35:39.908Z,8.53
2017-10-09T23:38:07.435Z,7.18
2017-10-09T23:40:34.961Z,7.10
2017-10-09T23:43:02.519Z,5.90
2017-10-09T23:45:30.042Z,6.40
2017-10-09T23:47:57.563Z,6.90
2017-10-09T23:50:25.183Z,6.37
2017-10-09T23:52:53.560Z,8.00
2017-10-09T23:55:21.857Z,7.50
2017-10-09T23:57:49.422Z,6.00
